Time;durP1;ratioP1;P1;durP2;ratioP2;P2;SDS_P1;SDS_P2;PMS_P1;PMS_P2;Temp;Humidity;BMP_temperature;BMP_pressure;BME280_temperature;BME280_humidity;BME280_pressure;Samples;Min_cycle;Max_cycle;Signal;HPM_P1;HPM_P2
2023/10/25 00:00:58;;;;;;;9.43;5.70;;;;;;;7.16;100.00;100030.03;5001617;28;20175;-69
2023/10/25 00:03:24;;;;;;;9.23;5.05;;;;;;;7.15;100.00;100040.69;5004918;28;20116;-70
2023/10/25 00:05:49;;;;;;;10.25;5.53;;;;;;;7.04;100.00;100027.97;5005749;28;20188;-71
2023/10/25 00:08:15;;;;;;;7.57;5.07;;;;;;;7.07;100.00;100029.63;4981588;28;20178;-71
2023/10/25 00:10:40;;;;;;;8.75;5.20;;;;;;;7.05;100.00;100023.53;5001167;28;20041;-71
2023/10/25 00:13:05;;;;;;;7.20;5.20;;;;;;;7.06;100.00;100027.91;5000670;28;20040;-69
2023/10/25 00:15:31;;;;;;;10.23;5.07;;;;;;;7.02;100.00;100026.34;4998492;28;20311;-70
2023/10/25 00:17:56;;;;;;;9.18;5.05;;;;;;;7.01;100.00;100014.03;4995242;28;20652;-71
2023/10/25 00:20:22;;;;;;;7.32;5.35;;;;;;;6.97;100.00;100011.53;5003577;28;20026;-70
2023/10/25 00:22:47;;;;;;;7.07;5.18;;;;;;;6.94;100.00;100009.06;5004558;28;20030;-70
2023/10/25 00:25:13;;;;;;;7.75;5.32;;;;;;;6.93;100.00;100009.97;5005286;28;20029;-70
2023/10/25 00:27:38;;;;;;;10.93;5.57;;;;;;;6.88;100.00;100006.72;5005168;28;20103;-70
2023/10/25 00:30:04;;;;;;;7.55;5.85;;;;;;;6.93;100.00;99998.53;5002526;28;20444;-70
2023/10/25 00:32:29;;;;;;;8.00;5.45;;;;;;;6.87;100.00;100006.78;5004467;28;20515;-71
2023/10/25 00:34:55;;;;;;;7.18;5.53;;;;;;;6.84;100.00;100007.78;5001724;28;20357;-70
2023/10/25 00:37:20;;;;;;;7.63;5.90;;;;;;;6.83;100.00;100010.53;4986812;28;20057;-70
2023/10/25 00:39:45;;;;;;;11.00;6.22;;;;;;;6.81;100.00;100015.88;4988211;28;20064;-71
2023/10/25 00:42:11;;;;;;;9.65;6.53;;;;;;;6.80;100.00;100014.16;4979398;28;20408;-70
2023/10/25 00:44:36;;;;;;;10.15;6.47;;;;;;;6.81;100.00;100018.50;5002333;28;20053;-70
2023/10/25 00:47:02;;;;;;;9.68;6.60;;;;;;;6.78;100.00;100023.13;5001705;28;20046;-71
2023/10/25 00:49:28;;;;;;;11.48;7.00;;;;;;;6.74;100.00;100017.13;5003430;28;20471;-71
2023/10/25 00:51:55;;;;;;;14.77;7.85;;;;;;;6.70;100.00;100007.63;5003829;28;20034;-70
2023/10/25 00:54:21;;;;;;;10.77;7.38;;;;;;;6.70;100.00;100019.03;5002184;28;20507;-70
2023/10/25 00:56:48;;;;;;;9.65;7.07;;;;;;;6.67;100.00;100018.34;5002969;28;20022;-71
2023/10/25 00:59:14;;;;;;;11.50;7.60;;;;;;;6.55;100.00;100010.97;5001749;28;20392;-70
2023/10/25 01:01:41;;;;;;;9.60;7.35;;;;;;;6.54;100.00;100011.91;5002909;28;20026;-71
2023/10/25 01:04:06;;;;;;;12.85;7.15;;;;;;;6.51;100.00;100004.97;5004513;28;20087;-71
2023/10/25 01:06:31;;;;;;;9.23;6.95;;;;;;;6.44;100.00;100000.94;5004442;28;20337;-71
2023/10/25 01:08:57;;;;;;;11.15;6.50;;;;;;;6.45;100.00;100002.63;5004133;28;20083;-71
2023/10/25 01:11:23;;;;;;;9.00;6.68;;;;;;;6.39;100.00;100001.13;5003912;28;20038;-71
2023/10/25 01:13:49;;;;;;;7.57;6.20;;;;;;;6.39;100.00;100006.41;5001935;28;20475;-70
2023/10/25 01:16:14;;;;;;;8.95;5.68;;;;;;;6.41;100.00;99998.41;5002726;28;20021;-70
2023/10/25 01:18:40;;;;;;;7.22;5.45;;;;;;;6.39;100.00;99990.53;5004209;28;20022;-71
2023/10/25 01:21:05;;;;;;;7.38;5.40;;;;;;;6.36;100.00;99995.16;5004485;28;20053;-70
2023/10/25 01:23:30;;;;;;;8.15;5.13;;;;;;;6.33;100.00;99990.84;5002338;28;20107;-71
2023/10/25 01:25:56;;;;;;;6.32;5.28;;;;;;;6.31;100.00;99992.72;5001785;28;20087;-70
2023/10/25 01:28:22;;;;;;;10.32;5.63;;;;;;;6.29;100.00;99989.28;5003650;28;20113;-70
2023/10/25 01:30:47;;;;;;;8.68;5.47;;;;;;;6.22;100.00;99983.41;4998168;28;20038;-71
2023/10/25 01:33:13;;;;;;;6.72;5.68;;;;;;;6.20;100.00;99973.84;5000680;28;20071;-70
2023/10/25 01:35:39;;;;;;;7.00;5.15;;;;;;;6.19;100.00;99961.59;4997584;28;20489;-71
2023/10/25 01:38:04;;;;;;;8.82;6.10;;;;;;;6.18;100.00;99957.19;5000662;28;20184;-71
2023/10/25 01:40:30;;;;;;;9.23;6.13;;;;;;;6.16;100.00;99948.50;4993273;28;20060;-71
2023/10/25 01:42:55;;;;;;;8.50;6.05;;;;;;;6.15;100.00;99939.72;5002652;28;20209;-71
2023/10/25 01:45:27;;;;;;;9.85;5.55;;;;;;;6.30;100.00;99948.69;4985335;28;20037;-71
2023/10/25 01:47:52;;;;;;;7.65;5.50;;;;;;;6.33;100.00;99942.44;5002470;28;20512;-71
2023/10/25 01:50:18;;;;;;;7.68;5.80;;;;;;;6.41;100.00;99943.75;5002233;28;20032;-71
2023/10/25 01:52:43;;;;;;;9.35;5.53;;;;;;;6.48;100.00;99931.97;4980663;28;20072;-70
2023/10/25 01:55:12;;;;;;;9.75;5.15;;;;;;;6.46;100.00;99936.47;4998461;28;20065;-71
2023/10/25 01:57:37;;;;;;;8.52;5.05;;;;;;;6.51;100.00;99932.75;5002027;28;20037;-71
2023/10/25 02:00:06;;;;;;;7.95;4.60;;;;;;;6.53;100.00;99938.81;5001845;28;20044;-71
2023/10/25 02:02:31;;;;;;;9.98;5.15;;;;;;;6.56;100.00;99934.22;5002140;28;20560;-71
2023/10/25 02:04:57;;;;;;;7.25;4.65;;;;;;;6.58;100.00;99934.16;5000731;28;20093;-70
2023/10/25 02:07:22;;;;;;;6.90;4.93;;;;;;;6.59;100.00;99922.66;5002234;28;20316;-71
2023/10/25 02:09:47;;;;;;;8.23;4.50;;;;;;;6.63;100.00;99922.44;5003893;28;20032;-71
2023/10/25 02:12:13;;;;;;;6.95;4.38;;;;;;;6.65;100.00;99919.72;5002944;28;20121;-70
2023/10/25 02:14:38;;;;;;;6.65;4.57;;;;;;;6.66;100.00;99924.94;5003775;28;20053;-70
2023/10/25 02:17:04;;;;;;;7.43;4.43;;;;;;;6.68;100.00;99925.69;5003291;28;20029;-70
2023/10/25 02:19:29;;;;;;;7.45;4.50;;;;;;;6.67;100.00;99915.19;5001028;28;20511;-71
2023/10/25 02:21:54;;;;;;;6.28;4.30;;;;;;;6.66;100.00;99913.50;5002580;28;20037;-71
2023/10/25 02:24:20;;;;;;;5.65;4.40;;;;;;;6.68;100.00;99914.25;5002637;28;20084;-70
2023/10/25 02:26:45;;;;;;;6.93;4.57;;;;;;;6.65;100.00;99901.22;5002767;28;20049;-71
2023/10/25 02:29:11;;;;;;;7.03;4.25;;;;;;;6.72;100.00;99907.88;5002591;28;20064;-70
2023/10/25 02:31:36;;;;;;;7.80;4.65;;;;;;;6.71;100.00;99891.16;5000540;28;20022;-71
2023/10/25 02:34:03;;;;;;;8.98;4.78;;;;;;;6.70;100.00;99889.47;5000553;28;20105;-71
2023/10/25 02:36:30;;;;;;;6.00;4.40;;;;;;;6.71;100.00;99888.53;5000841;28;20026;-70
2023/10/25 02:38:56;;;;;;;6.13;4.68;;;;;;;6.67;100.00;99894.03;5000586;28;20049;-70
2023/10/25 02:41:22;;;;;;;9.40;4.63;;;;;;;6.66;100.00;99897.63;4998135;28;20393;-70
2023/10/25 02:43:50;;;;;;;7.15;4.55;;;;;;;6.59;100.00;99878.56;4990312;28;20030;-70
2023/10/25 02:46:16;;;;;;;8.05;4.65;;;;;;;6.63;100.00;99884.56;4998675;28;20125;-71
2023/10/25 02:48:41;;;;;;;8.63;4.95;;;;;;;6.64;100.00;99886.25;4999832;28;20054;-70
2023/10/25 02:51:07;;;;;;;8.55;5.75;;;;;;;6.67;100.00;99872.91;4998775;28;20029;-72
2023/10/25 02:53:32;;;;;;;9.75;5.38;;;;;;;6.70;100.00;99868.31;5000243;28;20551;-70
2023/10/25 02:56:03;;;;;;;7.18;5.18;;;;;;;6.70;100.00;99867.47;5001126;28;20056;-70
2023/10/25 02:58:28;;;;;;;8.30;5.82;;;;;;;6.73;100.00;99862.88;4982539;28;20032;-71
2023/10/25 03:00:56;;;;;;;6.75;5.43;;;;;;;6.74;100.00;99859.28;4999281;28;20041;-71
2023/10/25 03:03:21;;;;;;;15.23;5.63;;;;;;;6.77;100.00;99852.13;4998990;28;20108;-71
2023/10/25 03:05:47;;;;;;;6.47;5.57;;;;;;;6.71;100.00;99845.34;4995832;28;20088;-72
2023/10/25 03:08:12;;;;;;;7.82;5.45;;;;;;;6.71;100.00;99837.44;5000801;28;20021;-70
2023/10/25 03:10:37;;;;;;;8.23;5.53;;;;;;;6.80;100.00;99847.53;4995350;28;20034;-70
2023/10/25 03:13:03;;;;;;;8.15;5.85;;;;;;;6.82;100.00;99837.75;4999706;28;20177;-71
2023/10/25 03:15:28;;;;;;;7.60;5.82;;;;;;;6.81;100.00;99837.81;5000737;28;20112;-70
2023/10/25 03:17:54;;;;;;;10.95;6.38;;;;;;;6.82;100.00;99832.47;4995253;28;20034;-70
2023/10/25 03:20:20;;;;;;;10.20;6.32;;;;;;;6.88;100.00;99839.22;4997855;28;20029;-71
2023/10/25 03:22:45;;;;;;;14.18;6.50;;;;;;;6.89;100.00;99822.41;4993635;28;20388;-71
2023/10/25 03:25:10;;;;;;;16.27;7.53;;;;;;;6.86;100.00;99814.63;5001192;28;20476;-70
2023/10/25 03:27:36;;;;;;;17.00;7.63;;;;;;;6.93;100.00;99824.78;4992023;28;20030;-70
2023/10/25 03:30:02;;;;;;;14.55;7.70;;;;;;;6.96;100.00;99823.78;4998764;28;20268;-71
2023/10/25 03:32:28;;;;;;;14.65;7.82;;;;;;;6.95;100.00;99824.72;4997715;28;20108;-70
2023/10/25 03:34:53;;;;;;;12.55;7.45;;;;;;;6.96;100.00;99827.28;4998880;28;20619;-70
2023/10/25 03:37:18;;;;;;;15.77;7.35;;;;;;;6.95;100.00;99816.81;4999770;28;20547;-71
2023/10/25 03:39:43;;;;;;;12.23;7.60;;;;;;;6.95;100.00;99820.28;4993302;28;20042;-70
2023/10/25 03:42:09;;;;;;;11.20;7.20;;;;;;;6.93;100.00;99816.88;4998709;28;20034;-70
2023/10/25 03:44:34;;;;;;;11.90;7.03;;;;;;;6.91;100.00;99810.81;5000033;28;20536;-70
2023/10/25 03:46:59;;;;;;;10.60;7.18;;;;;;;6.95;100.00;99816.81;4993273;28;20038;-70
2023/10/25 03:49:25;;;;;;;12.70;6.97;;;;;;;6.93;100.00;99808.06;5000251;28;20155;-70
2023/10/25 03:51:51;;;;;;;12.73;7.05;;;;;;;6.98;100.00;99820.16;5000432;28;20045;-71
2023/10/25 03:54:16;;;;;;;14.07;6.95;;;;;;;6.97;100.00;99810.47;4997012;28;20081;-71
2023/10/25 03:56:42;;;;;;;13.27;7.05;;;;;;;7.00;100.00;99809.47;4993735;28;20045;-70
2023/10/25 03:59:08;;;;;;;11.77;6.47;;;;;;;7.03;100.00;99805.81;4999643;28;20030;-69
2023/10/25 04:01:33;;;;;;;10.57;6.60;;;;;;;6.99;100.00;99800.69;5000935;28;20038;-70
2023/10/25 04:03:59;;;;;;;11.63;7.28;;;;;;;6.97;100.00;99802.53;4984751;28;20403;-70
2023/10/25 04:06:25;;;;;;;11.30;6.78;;;;;;;6.99;100.00;99805.97;4998293;28;20481;-70
2023/10/25 04:08:50;;;;;;;8.23;6.68;;;;;;;7.04;100.00;99807.53;5003219;28;20447;-69
2023/10/25 04:11:15;;;;;;;10.02;6.47;;;;;;;7.06;100.00;99800.34;4997435;28;20407;-70
2023/10/25 04:13:41;;;;;;;9.70;6.80;;;;;;;7.05;100.00;99796.84;4999512;28;20023;-71
2023/10/25 04:16:07;;;;;;;11.88;6.97;;;;;;;7.03;100.00;99795.25;5000507;28;20025;-70
2023/10/25 04:18:33;;;;;;;10.38;6.40;;;;;;;7.04;100.00;99797.78;5004434;28;20087;-70
2023/10/25 04:21:00;;;;;;;11.10;6.55;;;;;;;7.01;100.00;99795.31;4999412;28;20105;-72
2023/10/25 04:23:28;;;;;;;11.43;6.28;;;;;;;7.04;100.00;99792.50;4997769;28;20088;-71
2023/10/25 04:26:06;;;;;;;10.23;6.30;;;;;;;7.02;100.00;99788.22;5004071;28;20045;-72
2023/10/25 04:28:32;;;;;;;8.00;5.80;;;;;;;7.02;100.00;99785.56;4997468;28;20492;-70
2023/10/25 04:30:57;;;;;;;11.25;6.63;;;;;;;7.04;100.00;99783.72;5003720;28;20029;-71
2023/10/25 04:33:22;;;;;;;12.15;6.82;;;;;;;7.03;100.00;99776.72;5004254;28;20068;-71
2023/10/25 04:35:48;;;;;;;11.35;6.57;;;;;;;7.04;100.00;99779.28;5001327;28;20111;-71
2023/10/25 04:38:13;;;;;;;6.78;5.85;;;;;;;7.04;100.00;99773.97;5003816;28;20025;-71
2023/10/25 04:40:38;;;;;;;6.95;5.65;;;;;;;7.10;100.00;99783.38;5003488;28;20099;-71
2023/10/25 04:43:04;;;;;;;14.05;6.13;;;;;;;7.06;100.00;99769.44;5004888;28;20484;-70
2023/10/25 04:45:29;;;;;;;8.13;5.68;;;;;;;7.07;100.00;99771.19;5003776;28;20038;-71
2023/10/25 04:47:55;;;;;;;9.38;5.57;;;;;;;7.06;100.00;99769.44;4986925;28;20094;-71
2023/10/25 04:50:21;;;;;;;6.75;6.05;;;;;;;7.04;100.00;99760.75;5003728;28;20146;-71
2023/10/25 04:52:48;;;;;;;8.93;6.78;;;;;;;7.10;100.00;99752.47;5004119;28;20029;-70
2023/10/25 04:55:13;;;;;;;11.48;6.60;;;;;;;7.15;100.00;99758.38;4999830;28;20028;-69
2023/10/25 04:57:39;;;;;;;10.85;6.22;;;;;;;7.17;100.00;99750.34;5004272;28;20104;-70
2023/10/25 05:00:09;;;;;;;9.27;6.22;;;;;;;7.09;100.00;99741.97;5003299;28;20033;-71
2023/10/25 05:02:40;;;;;;;8.75;6.10;;;;;;;7.21;100.00;99759.84;5014503;28;20083;-74
2023/10/25 05:05:07;;;;;;;10.23;6.45;;;;;;;7.23;100.00;99750.91;5001704;28;20034;-71
2023/10/25 05:07:37;;;;;;;11.73;6.60;;;;;;;7.23;100.00;99747.38;5003667;28;20030;-70
2023/10/25 05:10:07;;;;;;;8.30;6.20;;;;;;;7.21;100.00;99738.66;4984356;28;20540;-71
2023/10/25 05:12:42;;;;;;;8.57;6.78;;;;;;;7.20;100.00;99729.03;4999748;28;20144;-71
2023/10/25 05:15:09;;;;;;;8.45;6.20;;;;;;;7.24;100.00;99734.06;4999878;28;20034;-70
2023/10/25 05:17:37;;;;;;;10.75;6.38;;;;;;;7.24;100.00;99725.28;5001464;28;20022;-71
2023/10/25 05:20:04;;;;;;;6.85;6.10;;;;;;;7.19;100.00;99717.59;5001462;28;20061;-70
2023/10/25 05:22:34;;;;;;;10.77;6.47;;;;;;;7.22;100.00;99708.59;5000379;28;20025;-70
2023/10/25 05:25:00;;;;;;;7.88;6.05;;;;;;;7.26;100.00;99717.25;5002777;28;20121;-70
2023/10/25 05:27:25;;;;;;;9.38;5.88;;;;;;;7.26;100.00;99709.31;4997957;28;20102;-70
2023/10/25 05:29:51;;;;;;;9.70;5.82;;;;;;;7.31;100.00;99700.16;5002361;28;20235;-71
2023/10/25 05:32:19;;;;;;;9.27;5.82;;;;;;;7.33;100.00;99713.31;4985006;28;20034;-70
2023/10/25 05:34:48;;;;;;;7.40;5.68;;;;;;;7.33;100.00;99697.44;5000309;28;20036;-70
2023/10/25 05:37:15;;;;;;;8.45;5.60;;;;;;;7.34;100.00;99700.00;5000456;28;20136;-70
2023/10/25 05:39:42;;;;;;;7.97;5.55;;;;;;;7.31;100.00;99684.28;5003062;28;20230;-71
2023/10/25 05:42:08;;;;;;;10.10;6.40;;;;;;;7.35;100.00;99688.47;5001825;28;20095;-71
2023/10/25 05:44:34;;;;;;;10.73;6.32;;;;;;;7.30;100.00;99681.72;4997704;28;20113;-70
2023/10/25 05:46:59;;;;;;;10.25;5.65;;;;;;;7.34;100.00;99689.41;5002428;28;20069;-70
2023/10/25 05:49:25;;;;;;;8.43;5.60;;;;;;;7.34;100.00;99678.81;5002847;28;20033;-71
2023/10/25 05:51:50;;;;;;;11.13;5.82;;;;;;;7.36;100.00;99689.34;4979926;28;20536;-71
2023/10/25 05:54:16;;;;;;;9.30;5.93;;;;;;;7.34;100.00;99684.09;4982147;28;20121;-70
2023/10/25 05:56:42;;;;;;;7.50;5.22;;;;;;;7.36;100.00;99684.91;4999677;28;20026;-70
2023/10/25 05:59:08;;;;;;;6.13;5.18;;;;;;;7.35;100.00;99680.53;5003088;28;20026;-71
2023/10/25 06:01:50;;;;;;;9.50;5.47;;;;;;;7.39;100.00;99681.19;4997777;28;20022;-71
2023/10/25 06:04:16;;;;;;;13.98;6.57;;;;;;;7.37;100.00;99678.66;4993652;28;20054;-71
2023/10/25 06:06:43;;;;;;;9.23;5.40;;;;;;;7.41;100.00;99679.34;4983386;28;20022;-71
2023/10/25 06:09:10;;;;;;;6.75;5.38;;;;;;;7.39;100.00;99671.47;4993814;28;20061;-72
2023/10/25 06:11:40;;;;;;;8.05;5.25;;;;;;;7.39;100.00;99666.16;4997511;28;20484;-71
2023/10/25 06:14:06;;;;;;;8.73;5.25;;;;;;;7.40;100.00;99667.91;4996931;28;20037;-71
2023/10/25 06:16:32;;;;;;;6.78;5.45;;;;;;;7.41;100.00;99659.00;4995977;28;20042;-72
2023/10/25 06:18:57;;;;;;;7.68;5.15;;;;;;;7.40;100.00;99659.97;4995667;28;20084;-72
2023/10/25 06:21:23;;;;;;;7.90;5.30;;;;;;;7.40;100.00;99659.09;4999323;28;20030;-72
2023/10/25 06:23:51;;;;;;;7.00;5.28;;;;;;;7.40;100.00;99651.16;4997501;28;20436;-71
2023/10/25 06:26:16;;;;;;;6.78;4.97;;;;;;;7.41;100.00;99645.78;4997393;28;20034;-71
2023/10/25 06:28:41;;;;;;;6.82;5.45;;;;;;;7.43;100.00;99633.28;5003279;28;20038;-71
2023/10/25 06:31:10;;;;;;;9.63;5.50;;;;;;;7.48;100.00;99639.19;4984536;28;20064;-72
2023/10/25 06:33:36;;;;;;;7.90;4.93;;;;;;;7.49;100.00;99635.59;5001156;28;20469;-71
2023/10/25 06:36:02;;;;;;;5.95;5.13;;;;;;;7.52;100.00;99633.69;4997926;28;20044;-73
2023/10/25 06:38:27;;;;;;;9.02;4.90;;;;;;;7.53;100.00;99627.50;4999950;28;20049;-71
2023/10/25 06:40:53;;;;;;;6.38;4.60;;;;;;;7.52;100.00;99626.59;5001865;28;20038;-72
2023/10/25 06:43:18;;;;;;;8.18;5.70;;;;;;;7.54;100.00;99624.75;5002278;28;20034;-70
2023/10/25 06:45:47;;;;;;;9.40;5.03;;;;;;;7.46;100.00;99606.66;5002126;28;20092;-71
2023/10/25 06:48:16;;;;;;;9.20;4.97;;;;;;;7.56;100.00;99614.91;5001416;28;20289;-71
2023/10/25 06:50:45;;;;;;;8.57;4.65;;;;;;;7.58;100.00;99610.38;5002879;28;20030;-71
2023/10/25 06:53:11;;;;;;;6.80;4.82;;;;;;;7.61;100.00;99607.56;5003059;28;20399;-71
2023/10/25 06:55:37;;;;;;;6.38;4.57;;;;;;;7.63;100.00;99607.47;5000139;28;20116;-70
2023/10/25 06:58:02;;;;;;;6.10;4.70;;;;;;;7.66;100.00;99599.34;4979333;28;20044;-72
2023/10/25 07:00:28;;;;;;;6.13;4.55;;;;;;;7.67;100.00;99604.53;4981777;28;20026;-70
2023/10/25 07:02:59;;;;;;;5.25;4.30;;;;;;;7.68;100.00;99592.16;5000180;28;20029;-72
2023/10/25 07:05:24;;;;;;;9.88;5.20;;;;;;;7.71;100.00;99591.97;5003146;28;20088;-72
2023/10/25 07:07:51;;;;;;;6.70;4.10;;;;;;;7.73;100.00;99584.78;5003211;28;20030;-72
2023/10/25 07:10:18;;;;;;;7.93;4.85;;;;;;;7.70;100.00;99571.75;5003354;28;20057;-72
2023/10/25 07:12:44;;;;;;;9.25;5.03;;;;;;;7.71;100.00;99563.69;5002919;28;20364;-71
2023/10/25 07:15:11;;;;;;;6.70;4.55;;;;;;;7.76;100.00;99571.38;4998728;28;20076;-70
2023/10/25 07:17:37;;;;;;;6.72;4.40;;;;;;;7.80;100.00;99574.69;5002505;28;20554;-71
2023/10/25 07:20:04;;;;;;;6.22;4.43;;;;;;;7.80;100.00;99574.69;4982745;28;20096;-71
2023/10/25 07:22:29;;;;;;;7.63;4.30;;;;;;;7.81;100.00;99571.94;4990797;28;20030;-70
2023/10/25 07:24:55;;;;;;;6.32;4.25;;;;;;;7.83;100.00;99572.72;5001519;28;20092;-71
2023/10/25 07:27:21;;;;;;;6.95;4.55;;;;;;;7.82;100.00;99567.53;4998502;28;20076;-72
2023/10/25 07:29:48;;;;;;;7.15;4.53;;;;;;;7.78;100.00;99561.53;5002424;28;20030;-71
2023/10/25 07:32:13;;;;;;;6.00;4.05;;;;;;;7.80;100.00;99554.34;5001808;28;20113;-71
2023/10/25 07:34:40;;;;;;;12.57;5.10;;;;;;;7.83;100.00;99558.63;4997611;28;20100;-72
2023/10/25 07:37:05;;;;;;;6.45;4.45;;;;;;;7.81;100.00;99544.59;5002053;28;20580;-71
2023/10/25 07:39:31;;;;;;;6.47;4.40;;;;;;;7.84;100.00;99545.28;5006484;28;20109;-72
2023/10/25 07:41:56;;;;;;;6.60;5.00;;;;;;;7.78;100.00;99524.47;5006840;28;20057;-71
2023/10/25 07:44:21;;;;;;;8.35;4.57;;;;;;;7.88;100.00;99535.34;4981014;28;20428;-71
2023/10/25 07:46:47;;;;;;;6.22;4.30;;;;;;;7.85;100.00;99523.13;5006519;28;20049;-72
2023/10/25 07:49:12;;;;;;;4.93;3.92;;;;;;;7.87;100.00;99531.84;5005327;28;20077;-70
2023/10/25 07:51:37;;;;;;;5.93;4.25;;;;;;;7.80;100.00;99511.97;5003989;28;20030;-70
2023/10/25 07:54:03;;;;;;;6.05;4.10;;;;;;;7.90;100.00;99517.53;5003624;28;20260;-73
2023/10/25 07:56:28;;;;;;;5.45;4.25;;;;;;;7.92;100.00;99519.16;5007462;28;20061;-73
2023/10/25 07:58:54;;;;;;;7.07;3.95;;;;;;;7.97;100.00;99521.53;5001698;28;20030;-73
2023/10/25 08:01:19;;;;;;;6.75;3.90;;;;;;;8.02;100.00;99516.78;4991948;28;20030;-73
2023/10/25 08:03:44;;;;;;;5.13;3.67;;;;;;;8.10;100.00;99509.22;5003609;28;20020;-73
2023/10/25 08:06:10;;;;;;;8.60;4.18;;;;;;;8.21;100.00;99495.31;5005501;28;20033;-73
2023/10/25 08:08:35;;;;;;;7.78;4.20;;;;;;;8.19;100.00;99476.00;4988308;28;20088;-73
2023/10/25 08:11:02;;;;;;;6.00;4.38;;;;;;;8.31;100.00;99482.34;5004752;28;20021;-71
2023/10/25 08:13:28;;;;;;;4.63;4.15;;;;;;;8.36;100.00;99485.53;5000353;28;20054;-71
2023/10/25 08:16:03;;;;;;;6.80;4.47;;;;;;;8.42;100.00;99488.69;4992634;28;20056;-72
2023/10/25 08:18:30;;;;;;;4.75;4.10;;;;;;;8.48;100.00;99483.03;5005655;28;20610;-71
2023/10/25 08:20:56;;;;;;;6.68;4.43;;;;;;;8.48;100.00;99475.06;5004531;28;20100;-71
2023/10/25 08:23:22;;;;;;;5.32;3.97;;;;;;;8.51;100.00;99473.16;5003753;28;20091;-72
2023/10/25 08:25:48;;;;;;;4.80;4.30;;;;;;;8.53;100.00;99471.22;4986379;28;20021;-73
2023/10/25 08:28:14;;;;;;;6.72;4.63;;;;;;;8.54;100.00;99457.91;5005339;28;20056;-74
2023/10/25 08:30:40;;;;;;;6.80;4.30;;;;;;;8.53;100.00;99457.97;5000239;28;20036;-72
2023/10/25 08:33:05;;;;;;;7.55;4.50;;;;;;;8.51;100.00;99454.59;5003431;28;20026;-73
2023/10/25 08:35:30;;;;;;;7.40;4.60;;;;;;;8.49;100.00;99452.03;5005423;28;20029;-72
2023/10/25 08:37:56;;;;;;;8.95;4.75;;;;;;;8.51;100.00;99449.28;4986741;28;20026;-72
2023/10/25 08:40:23;;;;;;;8.88;4.47;;;;;;;8.45;100.00;99448.75;5005752;28;20507;-72
2023/10/25 08:42:50;;;;;;;6.53;4.88;;;;;;;8.43;100.00;99436.50;5006378;28;20034;-72
2023/10/25 08:45:16;;;;;;;7.55;4.95;;;;;;;8.43;100.00;99433.88;5004763;28;20020;-73
2023/10/25 08:47:42;;;;;;;7.97;5.32;;;;;;;8.41;100.00;99425.19;5004821;28;20053;-72
2023/10/25 08:50:07;;;;;;;6.95;5.60;;;;;;;8.42;100.00;99425.06;5004980;28;20030;-72
2023/10/25 08:52:36;;;;;;;7.32;5.45;;;;;;;8.45;100.00;99424.03;4987980;28;20092;-72
2023/10/25 08:55:03;;;;;;;6.22;4.95;;;;;;;8.46;100.00;99415.97;5005502;28;20084;-72
2023/10/25 08:57:30;;;;;;;7.63;5.40;;;;;;;8.45;100.00;99416.91;5005167;28;20040;-73
2023/10/25 08:59:55;;;;;;;9.30;5.78;;;;;;;8.44;100.00;99409.94;5005367;28;20037;-71
2023/10/25 09:02:21;;;;;;;8.20;5.75;;;;;;;8.44;100.00;99411.69;5005262;28;20026;-71
2023/10/25 09:05:02;;;;;;;7.95;5.90;;;;;;;8.42;100.00;99414.47;5002587;28;20036;-71
2023/10/25 09:07:33;;;;;;;7.30;6.32;;;;;;;8.35;100.00;99399.84;5004636;28;20033;-71
2023/10/25 09:09:58;;;;;;;10.95;6.40;;;;;;;8.29;100.00;99396.78;5004163;28;20045;-71
2023/10/25 09:12:25;;;;;;;9.20;6.55;;;;;;;8.29;100.00;99394.13;5002448;28;20045;-72
2023/10/25 09:14:51;;;;;;;10.50;7.13;;;;;;;8.24;100.00;99389.13;5003824;28;20018;-71
2023/10/25 09:17:16;;;;;;;10.65;6.72;;;;;;;8.24;100.00;99399.72;5004281;28;20256;-70
2023/10/25 09:19:46;;;;;;;9.23;6.60;;;;;;;8.18;100.00;99408.03;5003274;28;20030;-70
2023/10/25 09:22:27;;;;;;;11.48;8.00;;;;;;;8.18;100.00;99400.09;5003349;28;20025;-71
2023/10/25 09:24:55;;;;;;;11.20;7.93;;;;;;;8.17;100.00;99391.28;4999525;28;20263;-69
2023/10/25 09:27:22;;;;;;;9.57;8.15;;;;;;;8.14;100.00;99382.69;5004332;28;20029;-71
2023/10/25 09:29:48;;;;;;;9.85;8.48;;;;;;;8.21;100.00;99374.25;5002481;28;20045;-70
2023/10/25 09:32:14;;;;;;;10.70;9.60;;;;;;;8.20;100.00;99377.00;4986126;28;20347;-71
2023/10/25 09:34:40;;;;;;;13.30;10.05;;;;;;;8.24;100.00;99381.16;5001150;28;20344;-70
2023/10/25 09:37:06;;;;;;;13.32;9.90;;;;;;;8.26;100.00;99375.75;5002191;28;20038;-69
2023/10/25 09:39:35;;;;;;;11.45;10.25;;;;;;;8.21;100.00;99368.09;5003136;28;20037;-70
2023/10/25 09:42:02;;;;;;;15.95;10.77;;;;;;;8.22;100.00;99360.03;5003002;28;20030;-68
2023/10/25 09:44:32;;;;;;;14.45;10.63;;;;;;;8.24;100.00;99362.59;5003421;28;20080;-68
2023/10/25 09:46:59;;;;;;;15.10;11.27;;;;;;;8.20;100.00;99354.00;5001424;28;20053;-70
2023/10/25 09:49:31;;;;;;;14.50;11.25;;;;;;;8.19;100.00;99354.06;4998688;28;20025;-70
2023/10/25 09:52:06;;;;;;;14.13;11.65;;;;;;;8.18;100.00;99347.09;5001879;28;20033;-70
2023/10/25 09:54:36;;;;;;;15.57;10.90;;;;;;;8.18;100.00;99349.75;5001617;28;20080;-70
2023/10/25 09:57:02;;;;;;;13.40;10.63;;;;;;;8.15;100.00;99337.56;4989048;28;20034;-68
2023/10/25 09:59:34;;;;;;;13.27;10.38;;;;;;;8.11;100.00;99333.41;4997102;28;20018;-69
2023/10/25 10:02:02;;;;;;;13.98;10.23;;;;;;;8.12;100.00;99323.66;5001784;28;20057;-70
2023/10/25 10:04:41;;;;;;;17.33;10.63;;;;;;;8.17;100.00;99335.63;5000661;28;20026;-71
2023/10/25 10:07:32;;;;;;;18.25;11.20;;;;;;;8.20;100.00;99335.44;4996538;28;20442;-69
2023/10/25 10:10:03;;;;;;;13.02;10.07;;;;;;;8.21;100.00;99321.25;4997707;28;20029;-70
2023/10/25 10:12:29;;;;;;;12.35;9.63;;;;;;;8.20;100.00;99316.03;4994927;28;20033;-69
2023/10/25 10:14:54;;;;;;;13.48;9.68;;;;;;;8.22;100.00;99308.84;5002363;28;20325;-69
2023/10/25 10:17:20;;;;;;;13.25;9.32;;;;;;;8.19;100.00;99299.31;5001889;28;20034;-70
2023/10/25 10:19:50;;;;;;;13.27;9.85;;;;;;;8.19;100.00;99291.34;5001565;28;20105;-71
2023/10/25 10:22:18;;;;;;;16.42;10.93;;;;;;;8.21;100.00;99288.59;5002372;28;20315;-71
2023/10/25 10:24:48;;;;;;;14.63;11.30;;;;;;;8.24;100.00;99283.09;5003113;28;20024;-68
2023/10/25 10:27:18;;;;;;;15.18;11.68;;;;;;;8.23;100.00;99270.75;5000726;28;20060;-69
2023/10/25 10:29:48;;;;;;;17.33;11.07;;;;;;;8.24;100.00;99278.63;4995076;28;20029;-68
2023/10/25 10:32:17;;;;;;;17.10;11.55;;;;;;;8.27;100.00;99266.13;4991018;28;20030;-70
2023/10/25 10:34:48;;;;;;;18.85;12.63;;;;;;;8.27;100.00;99266.13;5002220;28;20029;-68
2023/10/25 10:37:16;;;;;;;20.58;11.98;;;;;;;8.27;100.00;99256.34;5002926;28;20064;-69
2023/10/25 10:39:57;;;;;;;19.52;13.02;;;;;;;8.27;100.00;99256.34;5000189;28;20073;-70
2023/10/25 10:42:40;;;;;;;19.40;12.57;;;;;;;8.29;100.00;99243.88;4994153;28;20496;-69
2023/10/25 10:45:10;;;;;;;18.45;14.15;;;;;;;8.32;100.00;99240.13;5002152;28;20029;-70
2023/10/25 10:47:57;;;;;;;18.58;13.70;;;;;;;8.31;100.00;99238.44;5001913;28;20511;-69
2023/10/25 10:50:24;;;;;;;19.33;13.45;;;;;;;8.27;100.00;99221.91;5001840;28;20033;-70
2023/10/25 10:52:51;;;;;;;20.55;14.32;;;;;;;8.32;100.00;99227.75;4984549;28;20033;-69
2023/10/25 10:55:25;;;;;;;17.30;13.80;;;;;;;8.34;100.00;99220.53;5002651;28;20489;-71
2023/10/25 10:57:52;;;;;;;21.10;13.90;;;;;;;8.38;100.00;99214.13;5002289;28;20060;-72
2023/10/25 11:00:18;;;;;;;18.40;13.73;;;;;;;8.39;100.00;99207.00;5003290;28;20476;-72
2023/10/25 11:02:50;;;;;;;18.63;13.60;;;;;;;8.39;100.00;99207.00;5002592;28;20354;-71
2023/10/25 11:05:19;;;;;;;18.05;14.23;;;;;;;8.37;100.00;99185.91;5001678;28;20492;-72
2023/10/25 11:07:47;;;;;;;18.95;14.02;;;;;;;8.44;100.00;99205.75;5002013;28;20036;-71
2023/10/25 11:10:13;;;;;;;17.30;14.07;;;;;;;8.43;100.00;99195.25;5002697;28;20033;-71
2023/10/25 11:12:39;;;;;;;21.25;14.38;;;;;;;8.38;100.00;99177.00;4987481;28;20034;-70
2023/10/25 11:15:05;;;;;;;21.98;14.77;;;;;;;8.46;100.00;99177.31;5005457;28;20113;-71
2023/10/25 11:17:34;;;;;;;17.73;14.82;;;;;;;8.45;100.00;99186.25;5003146;28;20042;-71
2023/10/25 11:20:00;;;;;;;19.80;14.80;;;;;;;8.47;100.00;99175.50;5004296;28;20080;-72
2023/10/25 11:22:26;;;;;;;16.85;14.10;;;;;;;8.50;100.00;99174.47;5004914;28;20669;-71
2023/10/25 11:24:53;;;;;;;24.42;14.77;;;;;;;8.52;100.00;99168.09;5004779;28;20034;-70
2023/10/25 11:27:18;;;;;;;17.50;13.45;;;;;;;8.51;100.00;99162.91;5005289;28;20165;-71